createdAt,value
2019-01-14T00:01:34.316Z,12.77
2019-01-14T00:04:03.791Z,14.00
2019-01-14T00:06:33.282Z,14.40
2019-01-14T00:09:03.172Z,9.07
2019-01-14T00:11:32.704Z,14.33
2019-01-14T00:14:02.205Z,8.30
2019-01-14T00:16:31.721Z,9.33
2019-01-14T00:19:01.263Z,9.07
2019-01-14T00:21:30.766Z,16.20
2019-01-14T00:24:00.279Z,14.20
2019-01-14T00:26:29.830Z,16.23
2019-01-14T00:28:59.317Z,17.67
2019-01-14T00:31:28.842Z,8.57
2019-01-14T00:33:58.674Z,12.47
2019-01-14T00:36:28.324Z,13.33
2019-01-14T00:38:57.855Z,14.87
2019-01-14T00:41:27.363Z,14.00
2019-01-14T00:43:56.881Z,16.80
2019-01-14T00:46:26.394Z,19.43
2019-01-14T00:48:56.378Z,16.97
2019-01-14T00:51:25.866Z,21.27
2019-01-14T00:53:55.377Z,21.90
2019-01-14T00:56:25.045Z,15.87
2019-01-14T00:58:54.527Z,13.83
2019-01-14T01:01:24.027Z,11.63
2019-01-14T01:03:53.674Z,17.60
2019-01-14T01:06:24.828Z,13.73
2019-01-14T01:08:54.351Z,18.70
2019-01-14T01:11:23.861Z,13.37
2019-01-14T01:13:53.355Z,17.53
2019-01-14T01:16:22.915Z,21.73
2019-01-14T01:18:52.409Z,17.40
2019-01-14T01:21:21.891Z,23.50
2019-01-14T01:23:51.366Z,16.63
2019-01-14T01:26:20.889Z,14.30
2019-01-14T01:28:50.417Z,17.00
2019-01-14T01:31:19.898Z,19.60
2019-01-14T01:33:49.423Z,13.40
2019-01-14T01:36:19.210Z,16.13
2019-01-14T01:38:48.690Z,12.60
2019-01-14T01:41:18.186Z,15.67
2019-01-14T01:43:47.866Z,15.20
2019-01-14T01:46:17.371Z,18.97
2019-01-14T01:48:46.879Z,18.20
2019-01-14T01:51:16.550Z,16.90
2019-01-14T01:53:46.056Z,15.93
2019-01-14T01:56:15.602Z,18.43
2019-01-14T01:58:45.142Z,14.97
2019-01-14T02:01:14.607Z,20.33
2019-01-14T02:03:44.129Z,19.27
2019-01-14T02:06:13.931Z,19.77
2019-01-14T02:08:43.402Z,22.33
2019-01-14T02:11:12.977Z,20.77
2019-01-14T02:13:42.503Z,16.60
2019-01-14T02:16:11.954Z,25.07
2019-01-14T02:18:41.458Z,17.87
2019-01-14T02:21:10.993Z,22.50
2019-01-14T02:23:40.515Z,16.47
2019-01-14T02:26:10.036Z,16.47
2019-01-14T02:28:39.542Z,12.93
2019-01-14T02:31:09.054Z,15.10
2019-01-14T02:33:38.559Z,21.53
2019-01-14T02:36:08.208Z,16.40
2019-01-14T02:38:37.626Z,22.47
2019-01-14T02:41:07.143Z,19.97
2019-01-14T02:43:36.667Z,17.63
2019-01-14T02:46:06.170Z,20.13
2019-01-14T02:48:35.665Z,20.17
2019-01-14T02:51:05.344Z,17.73
2019-01-14T02:53:34.846Z,20.60
2019-01-14T02:56:04.346Z,25.30
2019-01-14T02:58:33.850Z,20.37
2019-01-14T03:01:03.437Z,18.27
2019-01-14T03:03:32.956Z,20.40
2019-01-14T03:06:02.764Z,28.00
2019-01-14T03:08:32.263Z,19.00
2019-01-14T03:11:01.748Z,20.70
2019-01-14T03:13:30.636Z,22.57
2019-01-14T03:16:00.102Z,22.53
2019-01-14T03:18:29.594Z,25.40
2019-01-14T03:20:59.090Z,22.57
2019-01-14T03:23:28.580Z,14.53
2019-01-14T03:25:58.516Z,16.93
2019-01-14T03:28:28.155Z,15.23
2019-01-14T03:30:57.657Z,23.57
2019-01-14T03:33:27.177Z,15.50
2019-01-14T03:35:56.820Z,20.70
2019-01-14T03:38:26.323Z,20.20
2019-01-14T03:40:55.809Z,16.23
2019-01-14T03:43:25.331Z,19.13
2019-01-14T03:45:54.848Z,21.00
2019-01-14T03:48:23.685Z,28.60
2019-01-14T03:50:53.266Z,17.33
2019-01-14T03:53:22.754Z,22.57
2019-01-14T03:55:52.369Z,18.40
2019-01-14T03:58:21.872Z,21.83
2019-01-14T04:00:51.436Z,15.10
2019-01-14T04:03:20.924Z,16.07
2019-01-14T04:05:50.463Z,14.33
2019-01-14T04:08:20.012Z,16.53
2019-01-14T04:10:49.486Z,14.03
2019-01-14T04:13:19.004Z,17.07
2019-01-14T04:15:48.644Z,17.67
2019-01-14T04:18:18.150Z,20.30
2019-01-14T04:20:47.658Z,19.63
2019-01-14T04:23:17.173Z,19.33
2019-01-14T04:25:46.693Z,22.47
2019-01-14T04:28:16.267Z,19.80
2019-01-14T04:30:45.801Z,21.80
2019-01-14T04:33:15.304Z,21.13
2019-01-14T04:35:44.762Z,21.40
2019-01-14T04:38:14.255Z,20.87
2019-01-14T04:40:43.728Z,22.60
2019-01-14T04:43:13.224Z,17.27
2019-01-14T04:45:42.723Z,16.50
2019-01-14T04:48:12.198Z,21.50
2019-01-14T04:50:41.689Z,20.53
2019-01-14T04:53:11.237Z,16.67
2019-01-14T04:55:40.762Z,17.20
2019-01-14T04:58:10.404Z,24.77
2019-01-14T05:00:40.002Z,27.53
2019-01-14T05:03:09.499Z,19.80
2019-01-14T05:05:39.000Z,17.47
2019-01-14T05:08:08.551Z,20.43
2019-01-14T05:10:37.994Z,22.40
2019-01-14T05:13:07.490Z,24.03
2019-01-14T05:15:37.190Z,20.00
2019-01-14T05:18:07.014Z,24.43
2019-01-14T05:20:35.846Z,18.03
2019-01-14T05:23:05.567Z,18.57
2019-01-14T05:25:35.104Z,17.67
2019-01-14T05:28:04.613Z,19.67
2019-01-14T05:30:34.091Z,29.53
2019-01-14T05:33:03.612Z,23.50
2019-01-14T05:35:33.120Z,18.17
2019-01-14T05:38:02.625Z,17.27
2019-01-14T05:40:32.130Z,22.90
2019-01-14T05:43:01.599Z,27.60
2019-01-14T05:45:31.119Z,17.90
2019-01-14T05:48:00.606Z,21.60
2019-01-14T05:50:30.095Z,21.80
2019-01-14T05:52:59.623Z,22.73
2019-01-14T05:55:29.105Z,14.67
2019-01-14T05:57:57.966Z,24.07
2019-01-14T06:00:52.101Z,19.60
2019-01-14T06:03:21.593Z,15.13
2019-01-14T06:05:51.087Z,10.13
2019-01-14T06:08:20.591Z,18.73
2019-01-14T06:10:50.084Z,18.93
2019-01-14T06:13:19.611Z,14.73
2019-01-14T06:15:49.084Z,13.07
2019-01-14T06:18:18.610Z,19.80
2019-01-14T06:20:47.484Z,19.13
2019-01-14T06:23:16.979Z,12.60
2019-01-14T06:25:46.699Z,15.60
2019-01-14T06:28:16.206Z,21.83
2019-01-14T06:30:45.704Z,18.03
2019-01-14T06:33:15.154Z,19.23
2019-01-14T06:35:44.676Z,16.57
2019-01-14T06:38:14.189Z,14.03
2019-01-14T06:40:43.700Z,13.17
2019-01-14T06:43:13.211Z,15.70
2019-01-14T06:45:42.719Z,25.47
2019-01-14T06:48:12.226Z,22.20
2019-01-14T06:50:41.735Z,17.33
2019-01-14T06:53:11.267Z,11.03
2019-01-14T06:55:40.800Z,15.73
2019-01-14T06:58:10.446Z,16.50
2019-01-14T07:00:40.001Z,25.33
2019-01-14T07:03:08.826Z,14.17
2019-01-14T07:05:37.717Z,17.40
2019-01-14T07:08:07.224Z,14.33
2019-01-14T07:10:36.686Z,14.00
2019-01-14T07:13:06.275Z,12.00
2019-01-14T07:15:35.805Z,10.83
2019-01-14T07:18:05.433Z,7.77
2019-01-14T07:20:34.932Z,11.60
2019-01-14T07:23:04.667Z,10.03
2019-01-14T07:25:34.187Z,11.80
2019-01-14T07:28:03.675Z,11.17
2019-01-14T07:30:33.165Z,10.80
2019-01-14T07:33:02.663Z,9.67
2019-01-14T07:35:32.364Z,11.00
2019-01-14T07:38:06.928Z,8.20
2019-01-14T07:40:35.806Z,12.20
2019-01-14T07:43:05.283Z,10.00
2019-01-14T07:45:34.883Z,8.77
2019-01-14T07:48:04.417Z,5.30
2019-01-14T07:50:33.917Z,8.23
2019-01-14T07:53:03.434Z,4.13
2019-01-14T07:55:32.914Z,7.27
2019-01-14T07:58:02.427Z,13.00
2019-01-14T08:00:31.933Z,10.33
2019-01-14T08:03:01.422Z,9.50
2019-01-14T08:05:30.941Z,9.70
2019-01-14T08:08:00.546Z,8.47
2019-01-14T08:10:30.999Z,7.70
2019-01-14T08:13:00.498Z,12.40
2019-01-14T08:15:29.983Z,6.10
2019-01-14T08:17:59.465Z,15.20
2019-01-14T08:20:28.939Z,7.67
2019-01-14T08:22:58.463Z,10.87
2019-01-14T08:25:28.080Z,7.67
2019-01-14T08:27:57.604Z,10.53
2019-01-14T08:30:27.047Z,6.87
2019-01-14T08:32:56.571Z,10.57
2019-01-14T08:35:26.090Z,11.27
2019-01-14T08:37:55.617Z,6.10
2019-01-14T08:40:25.050Z,6.43
2019-01-14T08:42:54.569Z,9.60
2019-01-14T08:45:24.069Z,9.77
2019-01-14T08:47:53.602Z,5.93
2019-01-14T08:50:23.215Z,4.33
2019-01-14T08:52:53.155Z,8.50
2019-01-14T08:55:22.753Z,5.17
2019-01-14T08:57:54.603Z,4.67
2019-01-14T09:00:23.837Z,6.90
2019-01-14T09:02:53.389Z,5.80
2019-01-14T09:05:22.942Z,2.97
2019-01-14T09:07:52.441Z,4.57
2019-01-14T09:10:26.180Z,5.13
2019-01-14T09:12:57.177Z,4.97
2019-01-14T09:15:27.005Z,4.80
2019-01-14T09:18:02.647Z,3.13
2019-01-14T09:20:27.747Z,5.23
2019-01-14T09:22:57.258Z,6.43
2019-01-14T09:25:26.825Z,7.63
2019-01-14T09:27:56.319Z,7.70
2019-01-14T09:30:26.727Z,4.40
2019-01-14T09:32:56.283Z,2.57
2019-01-14T09:35:25.755Z,8.13
2019-01-14T09:37:55.254Z,7.83
2019-01-14T09:40:25.489Z,6.37
2019-01-14T09:42:54.987Z,18.83
2019-01-14T09:45:24.476Z,5.77
2019-01-14T09:47:53.370Z,13.20
2019-01-14T09:50:22.951Z,8.27
2019-01-14T09:52:52.409Z,8.83
2019-01-14T09:55:22.086Z,7.47
2019-01-14T09:57:51.590Z,10.23
2019-01-14T10:00:21.170Z,6.43
2019-01-14T10:02:55.390Z,6.03
2019-01-14T10:05:21.766Z,7.93
2019-01-14T10:07:51.307Z,6.63
2019-01-14T10:10:21.216Z,6.73
2019-01-14T10:12:50.771Z,7.67
2019-01-14T10:15:25.125Z,6.50
2019-01-14T10:18:00.367Z,4.97
2019-01-14T10:20:29.879Z,5.40
2019-01-14T10:22:59.392Z,7.23
2019-01-14T10:25:28.874Z,11.47
2019-01-14T10:27:58.494Z,7.43
2019-01-14T10:30:27.990Z,4.47
2019-01-14T10:32:57.492Z,6.13
2019-01-14T10:35:27.034Z,7.87
2019-01-14T10:37:55.844Z,7.87
2019-01-14T10:40:25.340Z,7.80
2019-01-14T10:42:54.838Z,6.90
2019-01-14T10:45:24.808Z,8.50
2019-01-14T10:47:54.314Z,10.50
2019-01-14T10:50:23.937Z,11.33
2019-01-14T10:52:53.603Z,10.33
2019-01-14T10:55:23.084Z,7.77
2019-01-14T10:57:52.575Z,7.47
2019-01-14T11:00:24.439Z,8.37
2019-01-14T11:02:54.022Z,6.67
2019-01-14T11:05:24.914Z,7.40
2019-01-14T11:07:54.515Z,10.23
2019-01-14T11:10:24.018Z,8.73
2019-01-14T11:12:53.622Z,14.30
2019-01-14T11:15:23.259Z,8.57
2019-01-14T11:17:52.773Z,8.53
2019-01-14T11:20:25.087Z,10.33
2019-01-14T11:22:54.668Z,7.70
2019-01-14T11:25:24.157Z,13.00
2019-01-14T11:27:53.637Z,10.07
2019-01-14T11:30:25.419Z,7.13
2019-01-14T11:32:54.904Z,5.30
2019-01-14T11:35:24.374Z,8.23
2019-01-14T11:37:53.849Z,5.80
2019-01-14T11:40:25.945Z,6.57
2019-01-14T11:42:55.438Z,9.13
2019-01-14T11:45:24.928Z,10.13
2019-01-14T11:47:54.405Z,7.33
2019-01-14T11:50:23.905Z,7.93
2019-01-14T11:52:53.426Z,9.37
2019-01-14T11:55:22.983Z,10.13
2019-01-14T11:57:52.464Z,10.20
2019-01-14T12:00:24.037Z,7.33
2019-01-14T12:02:54.282Z,4.83
2019-01-14T12:05:24.363Z,10.70
2019-01-14T12:07:53.918Z,8.93
2019-01-14T12:10:23.418Z,7.17
2019-01-14T12:12:52.962Z,9.33
2019-01-14T12:15:27.414Z,5.03
2019-01-14T12:17:56.947Z,5.23
2019-01-14T12:20:26.480Z,9.07
2019-01-14T12:22:55.936Z,8.70
2019-01-14T12:25:25.578Z,8.13
2019-01-14T12:27:55.085Z,8.63
2019-01-14T12:30:27.946Z,7.13
2019-01-14T12:32:57.518Z,8.30
2019-01-14T12:35:27.058Z,10.60
2019-01-14T12:37:56.514Z,9.60
2019-01-14T12:40:26.131Z,8.03
2019-01-14T12:42:56.638Z,7.67
2019-01-14T12:45:26.158Z,7.50
2019-01-14T12:47:55.736Z,8.50
2019-01-14T12:50:25.990Z,8.30
2019-01-14T12:53:04.851Z,7.83
2019-01-14T12:55:34.821Z,7.37
2019-01-14T12:58:07.120Z,10.47
2019-01-14T13:00:36.566Z,6.77
2019-01-14T13:03:06.215Z,5.47
2019-01-14T13:05:35.694Z,9.33
2019-01-14T13:08:05.295Z,4.57
2019-01-14T13:10:34.802Z,7.10
2019-01-14T13:13:04.395Z,11.03
2019-01-14T13:15:33.925Z,8.20
2019-01-14T13:18:05.426Z,9.27
2019-01-14T13:20:34.643Z,7.00
2019-01-14T13:23:04.344Z,5.57
2019-01-14T13:25:34.150Z,9.87
2019-01-14T13:28:03.869Z,2.27
2019-01-14T13:30:33.444Z,6.10
2019-01-14T13:33:03.200Z,3.53
2019-01-14T13:35:32.747Z,12.40
2019-01-14T13:38:02.222Z,9.67
2019-01-14T13:40:31.726Z,10.70
2019-01-14T13:43:01.552Z,8.07
2019-01-14T13:45:31.026Z,15.63
2019-01-14T13:48:00.833Z,15.70
2019-01-14T13:50:30.586Z,8.07
2019-01-14T13:53:01.966Z,7.57
2019-01-14T13:55:31.502Z,8.30
2019-01-14T13:58:00.988Z,9.83
2019-01-14T14:00:30.483Z,8.77
2019-01-14T14:02:59.951Z,8.80
2019-01-14T14:05:29.707Z,8.03
2019-01-14T14:07:59.453Z,9.50
2019-01-14T14:10:31.413Z,10.20
2019-01-14T14:13:08.895Z,7.17
2019-01-14T14:15:38.606Z,8.03
2019-01-14T14:18:08.187Z,6.57
2019-01-14T14:20:37.660Z,9.97
2019-01-14T14:23:07.198Z,8.33
2019-01-14T14:25:37.946Z,8.53
2019-01-14T14:28:07.464Z,5.47
2019-01-14T14:30:39.834Z,10.53
2019-01-14T14:33:09.302Z,4.23
2019-01-14T14:35:38.817Z,6.20
2019-01-14T14:38:09.502Z,7.87
2019-01-14T14:40:39.013Z,8.33
2019-01-14T14:43:07.845Z,6.83
2019-01-14T14:45:37.342Z,7.23
2019-01-14T14:48:07.862Z,12.00
2019-01-14T14:50:37.319Z,10.00
2019-01-14T14:53:06.851Z,10.87
2019-01-14T14:55:36.342Z,11.43
2019-01-14T14:58:05.865Z,8.13
2019-01-14T15:00:35.366Z,8.77
2019-01-14T15:03:04.965Z,8.20
2019-01-14T15:05:35.658Z,10.17
2019-01-14T15:08:05.456Z,12.57
2019-01-14T15:10:34.964Z,11.40
2019-01-14T15:13:04.558Z,8.80
2019-01-14T15:15:34.061Z,8.67
2019-01-14T15:18:03.610Z,13.30
2019-01-14T15:20:33.150Z,14.00
2019-01-14T15:23:02.635Z,12.50
2019-01-14T15:25:31.737Z,16.67
2019-01-14T15:28:01.241Z,8.00
2019-01-14T15:30:31.665Z,8.20
2019-01-14T15:33:01.132Z,6.10
2019-01-14T15:35:30.779Z,9.57
2019-01-14T15:38:00.389Z,5.27
2019-01-14T15:40:29.870Z,5.53
2019-01-14T15:42:59.766Z,9.90
2019-01-14T15:45:29.389Z,8.07
2019-01-14T15:47:58.880Z,6.90
2019-01-14T15:50:28.331Z,5.80
2019-01-14T15:52:57.833Z,8.83
2019-01-14T15:55:28.166Z,9.20
2019-01-14T15:57:57.711Z,7.73
2019-01-14T16:00:27.752Z,10.67
2019-01-14T16:02:57.242Z,12.77
2019-01-14T16:05:27.137Z,14.20
2019-01-14T16:07:56.690Z,18.00
2019-01-14T16:10:26.907Z,9.80
2019-01-14T16:12:56.480Z,12.03
2019-01-14T16:15:26.098Z,11.60
2019-01-14T16:17:55.763Z,10.33
2019-01-14T16:20:26.785Z,10.77
2019-01-14T16:22:56.675Z,11.40
2019-01-14T16:25:26.228Z,11.70
2019-01-14T16:27:55.723Z,10.60
2019-01-14T16:30:26.799Z,10.10
2019-01-14T16:32:56.281Z,10.53
2019-01-14T16:35:25.840Z,8.90
2019-01-14T16:37:55.342Z,14.90
2019-01-14T16:40:24.819Z,8.43
2019-01-14T16:42:54.355Z,9.67
2019-01-14T16:45:27.702Z,9.70
2019-01-14T16:47:57.224Z,16.30
2019-01-14T16:50:26.735Z,9.70
2019-01-14T16:52:56.653Z,12.77
2019-01-14T16:55:45.120Z,10.67
2019-01-14T16:58:14.624Z,12.70
2019-01-14T17:00:44.138Z,14.70
2019-01-14T17:03:13.629Z,12.20
2019-01-14T17:05:52.844Z,10.47
2019-01-14T17:08:22.733Z,15.33
2019-01-14T17:10:52.207Z,12.87
2019-01-14T17:13:21.740Z,11.70
2019-01-14T17:15:51.219Z,10.13
2019-01-14T17:18:21.515Z,12.20
2019-01-14T17:20:51.087Z,15.27
2019-01-14T17:23:19.968Z,19.23
2019-01-14T17:25:49.479Z,13.07
2019-01-14T17:28:18.943Z,15.40
2019-01-14T17:30:48.451Z,16.10
2019-01-14T17:33:17.971Z,16.60
2019-01-14T17:35:47.482Z,14.40
2019-01-14T17:38:17.274Z,20.03
2019-01-14T17:40:46.816Z,16.00
2019-01-14T17:43:16.322Z,11.70
2019-01-14T17:45:46.025Z,13.63
2019-01-14T17:48:15.547Z,13.70
2019-01-14T17:50:45.082Z,11.30
2019-01-14T17:53:14.594Z,11.73
2019-01-14T17:55:44.100Z,14.73
2019-01-14T17:58:13.638Z,11.13
2019-01-14T18:00:43.115Z,29.00
2019-01-14T18:03:12.700Z,14.00
2019-01-14T18:05:42.194Z,12.27
2019-01-14T18:08:11.711Z,13.87
2019-01-14T18:10:41.258Z,16.37
2019-01-14T18:13:10.748Z,9.57
2019-01-14T18:15:40.402Z,11.33
2019-01-14T18:18:09.891Z,17.20
2019-01-14T18:20:39.366Z,11.90
2019-01-14T18:23:08.917Z,8.73
2019-01-14T18:25:38.386Z,14.70
2019-01-14T18:28:07.887Z,11.63
2019-01-14T18:30:37.373Z,13.27
2019-01-14T18:33:06.886Z,12.97
2019-01-14T18:35:36.401Z,11.63
2019-01-14T18:38:06.031Z,12.93
2019-01-14T18:40:35.534Z,10.50
2019-01-14T18:43:05.008Z,16.43
2019-01-14T18:45:34.585Z,8.27
2019-01-14T18:48:04.073Z,11.93
2019-01-14T18:50:33.566Z,8.63
2019-01-14T18:53:03.074Z,11.57
2019-01-14T18:55:32.873Z,14.13
2019-01-14T18:58:02.429Z,12.43
2019-01-14T19:00:31.922Z,12.23
2019-01-14T19:03:01.394Z,12.37
2019-01-14T19:05:32.453Z,8.37
2019-01-14T19:08:03.243Z,11.33
2019-01-14T19:10:34.111Z,21.97
2019-01-14T19:13:05.150Z,9.97
2019-01-14T19:15:35.903Z,15.67
2019-01-14T19:18:05.601Z,15.10
2019-01-14T19:20:35.102Z,12.60
2019-01-14T19:23:04.554Z,14.13
2019-01-14T19:25:34.078Z,10.60
2019-01-14T19:28:02.950Z,15.87
2019-01-14T19:30:32.487Z,12.53
2019-01-14T19:33:01.984Z,11.03
2019-01-14T19:35:31.535Z,15.67
2019-01-14T19:38:01.048Z,14.33
2019-01-14T19:40:30.538Z,13.33
2019-01-14T19:43:00.042Z,19.23
2019-01-14T19:45:29.542Z,14.93
2019-01-14T19:47:58.994Z,11.93
2019-01-14T19:50:28.444Z,9.97
2019-01-14T19:52:58.191Z,12.33
2019-01-14T19:55:27.782Z,12.23
2019-01-14T19:57:57.254Z,7.60
2019-01-14T20:00:28.989Z,15.87
2019-01-14T20:02:58.667Z,12.80
2019-01-14T20:05:28.123Z,16.53
2019-01-14T20:07:57.745Z,15.47
2019-01-14T20:10:27.251Z,16.97
2019-01-14T20:12:57.354Z,13.60
2019-01-14T20:15:26.864Z,16.17
2019-01-14T20:17:56.341Z,13.70
2019-01-14T20:20:25.957Z,14.03
2019-01-14T20:22:55.510Z,15.33
2019-01-14T20:25:25.264Z,10.53
2019-01-14T20:27:54.742Z,14.57
2019-01-14T20:30:25.362Z,19.60
2019-01-14T20:32:54.940Z,12.47
2019-01-14T20:35:24.453Z,10.37
2019-01-14T20:37:54.057Z,27.10
2019-01-14T20:40:23.689Z,12.80
2019-01-14T20:42:53.208Z,16.53
2019-01-14T20:45:22.729Z,13.07
2019-01-14T20:47:52.195Z,18.20
2019-01-14T20:50:22.396Z,13.20
2019-01-14T20:52:51.914Z,14.70
2019-01-14T20:55:21.428Z,17.03
2019-01-14T20:57:50.933Z,10.97
2019-01-14T21:00:26.651Z,11.30
2019-01-14T21:02:56.174Z,11.07
2019-01-14T21:05:26.795Z,12.47
2019-01-14T21:07:56.257Z,11.23
2019-01-14T21:10:25.811Z,9.70
2019-01-14T21:12:55.359Z,12.50
2019-01-14T21:15:24.890Z,10.17
2019-01-14T21:17:54.412Z,11.83
2019-01-14T21:20:25.209Z,8.90
2019-01-14T21:22:55.846Z,14.60
2019-01-14T21:25:25.453Z,15.87
2019-01-14T21:27:54.977Z,17.30
2019-01-14T21:30:26.389Z,18.13
2019-01-14T21:32:55.894Z,12.00
2019-01-14T21:35:25.445Z,8.30
2019-01-14T21:37:56.782Z,17.27
2019-01-14T21:40:26.294Z,14.87
2019-01-14T21:42:55.868Z,11.67
2019-01-14T21:45:25.329Z,19.80
2019-01-14T21:47:54.844Z,12.80
2019-01-14T21:50:24.384Z,13.53
2019-01-14T21:52:53.258Z,15.43
2019-01-14T21:55:24.470Z,13.93
2019-01-14T21:57:54.043Z,15.43
2019-01-14T22:00:24.675Z,13.23
2019-01-14T22:02:54.284Z,13.07
2019-01-14T22:05:23.857Z,16.80
2019-01-14T22:07:53.960Z,11.23
2019-01-14T22:10:25.398Z,14.07
2019-01-14T22:12:55.035Z,16.13
2019-01-14T22:15:24.589Z,15.10
2019-01-14T22:17:54.131Z,15.93
2019-01-14T22:20:25.794Z,11.33
2019-01-14T22:22:55.315Z,13.27
2019-01-14T22:25:24.924Z,14.60
2019-01-14T22:27:54.453Z,10.43
2019-01-14T22:30:34.535Z,11.63
2019-01-14T22:33:04.456Z,15.83
2019-01-14T22:35:34.125Z,13.93
2019-01-14T22:38:03.631Z,13.00
2019-01-14T22:40:33.171Z,17.00
2019-01-14T22:43:02.007Z,17.50
2019-01-14T22:45:31.528Z,11.73
2019-01-14T22:48:00.990Z,15.73
2019-01-14T22:50:30.434Z,12.63
2019-01-14T22:52:59.926Z,13.57
2019-01-14T22:55:29.721Z,17.10
2019-01-14T22:57:59.383Z,15.13
2019-01-14T23:00:54.435Z,9.30
2019-01-14T23:03:24.326Z,11.40
2019-01-14T23:05:53.809Z,11.03
2019-01-14T23:08:23.305Z,10.00
2019-01-14T23:10:52.806Z,9.97
2019-01-14T23:13:22.342Z,12.57
2019-01-14T23:15:51.878Z,12.47
2019-01-14T23:18:21.370Z,20.57
2019-01-14T23:20:50.852Z,10.53
2019-01-14T23:23:20.326Z,10.83
2019-01-14T23:25:49.817Z,15.70
2019-01-14T23:28:19.293Z,23.37
2019-01-14T23:30:48.834Z,12.77
2019-01-14T23:33:18.381Z,14.20
2019-01-14T23:35:47.921Z,15.87
2019-01-14T23:38:17.394Z,12.37
2019-01-14T23:40:46.943Z,8.77
2019-01-14T23:43:16.437Z,10.10
2019-01-14T23:45:45.976Z,13.33
2019-01-14T23:48:15.449Z,10.87
2019-01-14T23:50:44.960Z,13.47
2019-01-14T23:53:14.501Z,14.03
2019-01-14T23:55:44.407Z,10.87
2019-01-14T23:58:13.928Z,10.07
